sensor_id;sensor_type;location;lat;lon;timestamp;P1;durP1;ratioP1;P2;durP2;ratioP2
2724;SDS011;1370;52.596;13.112;2023-07-20T00:01:07;178.27;;;171.77;;
2724;SDS011;1370;52.596;13.112;2023-07-20T00:03:33;178.40;;;171.87;;
2724;SDS011;1370;52.596;13.112;2023-07-20T00:05:58;192.30;;;185.60;;
2724;SDS011;1370;52.596;13.112;2023-07-20T00:08:23;202.63;;;195.37;;
2724;SDS011;1370;52.596;13.112;2023-07-20T00:10:49;196.10;;;189.20;;
2724;SDS011;1370;52.596;13.112;2023-07-20T00:13:14;195.50;;;188.63;;
2724;SDS011;1370;52.596;13.112;2023-07-20T00:15:40;189.23;;;182.33;;
2724;SDS011;1370;52.596;13.112;2023-07-20T00:18:06;208.30;;;200.83;;
2724;SDS011;1370;52.596;13.112;2023-07-20T00:20:31;201.10;;;193.97;;
2724;SDS011;1370;52.596;13.112;2023-07-20T00:22:57;180.40;;;173.93;;
2724;SDS011;1370;52.596;13.112;2023-07-20T00:25:22;179.13;;;172.57;;
2724;SDS011;1370;52.596;13.112;2023-07-20T00:27:48;198.23;;;190.93;;
2724;SDS011;1370;52.596;13.112;2023-07-20T00:30:13;169.03;;;162.83;;
2724;SDS011;1370;52.596;13.112;2023-07-20T00:32:39;202.67;;;195.20;;
2724;SDS011;1370;52.596;13.112;2023-07-20T00:35:04;197.60;;;190.67;;
2724;SDS011;1370;52.596;13.112;2023-07-20T00:37:29;188.43;;;181.67;;
2724;SDS011;1370;52.596;13.112;2023-07-20T00:39:55;179.70;;;173.17;;
2724;SDS011;1370;52.596;13.112;2023-07-20T00:42:20;190.77;;;183.67;;
2724;SDS011;1370;52.596;13.112;2023-07-20T00:44:45;178.30;;;171.17;;
2724;SDS011;1370;52.596;13.112;2023-07-20T00:47:11;196.70;;;189.60;;
2724;SDS011;1370;52.596;13.112;2023-07-20T00:49:36;175.60;;;169.23;;
2724;SDS011;1370;52.596;13.112;2023-07-20T00:52:02;188.20;;;181.40;;
2724;SDS011;1370;52.596;13.112;2023-07-20T00:54:28;220.87;;;213.13;;
2724;SDS011;1370;52.596;13.112;2023-07-20T00:56:54;180.43;;;173.77;;
2724;SDS011;1370;52.596;13.112;2023-07-20T00:59:19;184.53;;;177.83;;
2724;SDS011;1370;52.596;13.112;2023-07-20T01:01:45;184.20;;;177.43;;
2724;SDS011;1370;52.596;13.112;2023-07-20T01:04:11;215.43;;;207.40;;
2724;SDS011;1370;52.596;13.112;2023-07-20T01:06:40;207.83;;;199.83;;
2724;SDS011;1370;52.596;13.112;2023-07-20T01:09:13;181.17;;;174.43;;
2724;SDS011;1370;52.596;13.112;2023-07-20T01:12:01;174.00;;;167.13;;
2724;SDS011;1370;52.596;13.112;2023-07-20T01:14:31;187.43;;;180.57;;
2724;SDS011;1370;52.596;13.112;2023-07-20T01:16:57;173.90;;;167.17;;
2724;SDS011;1370;52.596;13.112;2023-07-20T01:19:23;182.50;;;175.70;;
2724;SDS011;1370;52.596;13.112;2023-07-20T01:21:53;148.87;;;142.83;;
2724;SDS011;1370;52.596;13.112;2023-07-20T01:29:48;155.40;;;149.57;;
2724;SDS011;1370;52.596;13.112;2023-07-20T01:32:39;136.73;;;131.27;;
2724;SDS011;1370;52.596;13.112;2023-07-20T01:35:05;157.43;;;151.63;;
2724;SDS011;1370;52.596;13.112;2023-07-20T01:37:31;152.97;;;147.40;;
2724;SDS011;1370;52.596;13.112;2023-07-20T01:39:59;148.83;;;143.07;;
2724;SDS011;1370;52.596;13.112;2023-07-20T01:42:24;170.87;;;164.70;;
2724;SDS011;1370;52.596;13.112;2023-07-20T01:44:51;157.80;;;151.83;;
2724;SDS011;1370;52.596;13.112;2023-07-20T01:47:17;179.33;;;172.83;;
2724;SDS011;1370;52.596;13.112;2023-07-20T01:49:43;151.83;;;146.10;;
2724;SDS011;1370;52.596;13.112;2023-07-20T01:52:08;167.50;;;160.93;;
2724;SDS011;1370;52.596;13.112;2023-07-20T01:54:33;172.93;;;166.63;;
2724;SDS011;1370;52.596;13.112;2023-07-20T01:56:59;164.60;;;157.33;;
2724;SDS011;1370;52.596;13.112;2023-07-20T01:59:24;150.53;;;144.67;;
2724;SDS011;1370;52.596;13.112;2023-07-20T02:01:49;169.90;;;163.37;;
2724;SDS011;1370;52.596;13.112;2023-07-20T02:04:15;152.47;;;146.77;;
2724;SDS011;1370;52.596;13.112;2023-07-20T02:06:40;156.20;;;150.40;;
2724;SDS011;1370;52.596;13.112;2023-07-20T02:09:05;155.80;;;150.07;;
2724;SDS011;1370;52.596;13.112;2023-07-20T02:11:31;124.03;;;118.87;;
2724;SDS011;1370;52.596;13.112;2023-07-20T02:17:18;102.47;;;98.17;;
2724;SDS011;1370;52.596;13.112;2023-07-20T02:19:43;145.37;;;139.77;;
2724;SDS011;1370;52.596;13.112;2023-07-20T02:22:08;118.80;;;113.83;;
2724;SDS011;1370;52.596;13.112;2023-07-20T02:24:34;118.13;;;113.37;;
2724;SDS011;1370;52.596;13.112;2023-07-20T02:26:59;115.47;;;111.07;;
2724;SDS011;1370;52.596;13.112;2023-07-20T02:29:25;123.70;;;118.93;;
2724;SDS011;1370;52.596;13.112;2023-07-20T02:31:50;130.50;;;125.33;;
2724;SDS011;1370;52.596;13.112;2023-07-20T02:34:15;116.13;;;111.70;;
2724;SDS011;1370;52.596;13.112;2023-07-20T02:36:40;125.60;;;120.60;;
2724;SDS011;1370;52.596;13.112;2023-07-20T02:39:07;134.60;;;129.37;;
2724;SDS011;1370;52.596;13.112;2023-07-20T02:41:33;127.70;;;122.77;;
2724;SDS011;1370;52.596;13.112;2023-07-20T02:43:58;115.10;;;110.50;;
2724;SDS011;1370;52.596;13.112;2023-07-20T02:46:24;121.73;;;116.93;;
2724;SDS011;1370;52.596;13.112;2023-07-20T02:48:49;117.93;;;113.43;;
2724;SDS011;1370;52.596;13.112;2023-07-20T02:51:14;110.33;;;106.13;;
2724;SDS011;1370;52.596;13.112;2023-07-20T02:53:40;128.80;;;124.07;;
2724;SDS011;1370;52.596;13.112;2023-07-20T02:56:06;140.17;;;134.27;;
2724;SDS011;1370;52.596;13.112;2023-07-20T02:58:33;125.80;;;120.33;;
2724;SDS011;1370;52.596;13.112;2023-07-20T03:01:01;140.97;;;135.40;;
2724;SDS011;1370;52.596;13.112;2023-07-20T03:03:27;120.27;;;115.37;;
2724;SDS011;1370;52.596;13.112;2023-07-20T03:05:52;122.03;;;117.13;;
2724;SDS011;1370;52.596;13.112;2023-07-20T03:08:19;146.97;;;140.47;;
2724;SDS011;1370;52.596;13.112;2023-07-20T03:10:44;111.30;;;106.63;;
2724;SDS011;1370;52.596;13.112;2023-07-20T03:13:10;103.37;;;99.20;;
2724;SDS011;1370;52.596;13.112;2023-07-20T03:15:35;88.90;;;84.80;;
2724;SDS011;1370;52.596;13.112;2023-07-20T03:18:00;93.47;;;89.53;;
2724;SDS011;1370;52.596;13.112;2023-07-20T03:20:26;99.97;;;95.20;;
2724;SDS011;1370;52.596;13.112;2023-07-20T03:22:51;98.13;;;93.93;;
2724;SDS011;1370;52.596;13.112;2023-07-20T03:25:16;116.67;;;111.67;;
2724;SDS011;1370;52.596;13.112;2023-07-20T03:27:42;135.80;;;130.70;;
2724;SDS011;1370;52.596;13.112;2023-07-20T03:30:08;102.70;;;98.30;;
2724;SDS011;1370;52.596;13.112;2023-07-20T03:32:34;105.00;;;100.67;;
2724;SDS011;1370;52.596;13.112;2023-07-20T03:34:59;106.23;;;101.70;;
2724;SDS011;1370;52.596;13.112;2023-07-20T03:37:25;121.57;;;116.30;;
2724;SDS011;1370;52.596;13.112;2023-07-20T03:39:50;139.40;;;133.93;;
2724;SDS011;1370;52.596;13.112;2023-07-20T03:42:15;137.33;;;132.07;;
2724;SDS011;1370;52.596;13.112;2023-07-20T03:44:41;129.63;;;124.50;;
2724;SDS011;1370;52.596;13.112;2023-07-20T03:47:06;132.67;;;127.47;;
2724;SDS011;1370;52.596;13.112;2023-07-20T03:49:31;122.10;;;116.83;;
2724;SDS011;1370;52.596;13.112;2023-07-20T03:51:57;108.57;;;103.90;;
2724;SDS011;1370;52.596;13.112;2023-07-20T03:54:22;129.77;;;124.60;;
2724;SDS011;1370;52.596;13.112;2023-07-20T03:56:47;148.80;;;143.10;;
2724;SDS011;1370;52.596;13.112;2023-07-20T03:59:13;129.90;;;124.63;;
2724;SDS011;1370;52.596;13.112;2023-07-20T04:01:38;112.03;;;107.57;;
2724;SDS011;1370;52.596;13.112;2023-07-20T04:04:05;91.20;;;87.03;;
2724;SDS011;1370;52.596;13.112;2023-07-20T04:06:32;125.10;;;120.20;;
2724;SDS011;1370;52.596;13.112;2023-07-20T04:08:57;107.83;;;103.33;;
2724;SDS011;1370;52.596;13.112;2023-07-20T04:11:22;131.13;;;126.17;;
2724;SDS011;1370;52.596;13.112;2023-07-20T04:13:48;136.80;;;131.50;;
2724;SDS011;1370;52.596;13.112;2023-07-20T04:16:13;116.90;;;112.27;;
2724;SDS011;1370;52.596;13.112;2023-07-20T04:18:38;137.50;;;132.17;;
2724;SDS011;1370;52.596;13.112;2023-07-20T04:21:03;145.13;;;139.53;;
2724;SDS011;1370;52.596;13.112;2023-07-20T04:23:29;115.43;;;110.53;;
2724;SDS011;1370;52.596;13.112;2023-07-20T04:25:54;130.80;;;125.33;;
2724;SDS011;1370;52.596;13.112;2023-07-20T04:28:19;125.17;;;119.77;;
2724;SDS011;1370;52.596;13.112;2023-07-20T04:30:48;140.20;;;134.90;;
2724;SDS011;1370;52.596;13.112;2023-07-20T04:33:14;146.70;;;141.00;;
2724;SDS011;1370;52.596;13.112;2023-07-20T04:38:14;131.10;;;126.17;;
2724;SDS011;1370;52.596;13.112;2023-07-20T04:40:46;111.77;;;106.90;;
2724;SDS011;1370;52.596;13.112;2023-07-20T04:43:15;137.13;;;131.90;;
2724;SDS011;1370;52.596;13.112;2023-07-20T04:48:13;137.43;;;131.97;;
2724;SDS011;1370;52.596;13.112;2023-07-20T04:50:40;144.40;;;138.57;;
2724;SDS011;1370;52.596;13.112;2023-07-20T04:53:06;151.93;;;146.13;;
2724;SDS011;1370;52.596;13.112;2023-07-20T04:55:31;149.60;;;143.70;;
2724;SDS011;1370;52.596;13.112;2023-07-20T04:57:58;167.83;;;161.03;;
2724;SDS011;1370;52.596;13.112;2023-07-20T05:00:25;147.13;;;141.20;;
2724;SDS011;1370;52.596;13.112;2023-07-20T05:02:50;133.23;;;128.00;;
2724;SDS011;1370;52.596;13.112;2023-07-20T05:05:15;158.20;;;152.03;;
2724;SDS011;1370;52.596;13.112;2023-07-20T05:07:40;137.20;;;131.90;;
2724;SDS011;1370;52.596;13.112;2023-07-20T05:10:06;135.53;;;130.10;;
2724;SDS011;1370;52.596;13.112;2023-07-20T05:12:32;136.10;;;130.70;;
2724;SDS011;1370;52.596;13.112;2023-07-20T05:14:57;135.30;;;130.07;;
2724;SDS011;1370;52.596;13.112;2023-07-20T05:17:22;131.60;;;125.37;;
2724;SDS011;1370;52.596;13.112;2023-07-20T05:19:48;140.77;;;134.93;;
2724;SDS011;1370;52.596;13.112;2023-07-20T05:22:13;141.30;;;135.60;;
2724;SDS011;1370;52.596;13.112;2023-07-20T05:24:39;144.00;;;138.20;;
2724;SDS011;1370;52.596;13.112;2023-07-20T05:27:04;142.57;;;136.87;;
2724;SDS011;1370;52.596;13.112;2023-07-20T05:29:30;131.97;;;126.20;;
2724;SDS011;1370;52.596;13.112;2023-07-20T05:31:55;123.50;;;117.93;;
2724;SDS011;1370;52.596;13.112;2023-07-20T05:34:21;136.30;;;130.67;;
2724;SDS011;1370;52.596;13.112;2023-07-20T05:36:46;229.40;;;213.17;;
2724;SDS011;1370;52.596;13.112;2023-07-20T05:39:11;150.90;;;144.63;;
2724;SDS011;1370;52.596;13.112;2023-07-20T05:41:36;156.60;;;149.20;;
2724;SDS011;1370;52.596;13.112;2023-07-20T05:44:02;158.80;;;152.40;;
2724;SDS011;1370;52.596;13.112;2023-07-20T05:46:27;151.47;;;145.33;;
2724;SDS011;1370;52.596;13.112;2023-07-20T05:48:52;164.10;;;157.63;;
2724;SDS011;1370;52.596;13.112;2023-07-20T05:51:18;161.10;;;154.83;;
2724;SDS011;1370;52.596;13.112;2023-07-20T05:53:43;158.87;;;152.37;;
2724;SDS011;1370;52.596;13.112;2023-07-20T05:56:09;170.60;;;163.13;;
2724;SDS011;1370;52.596;13.112;2023-07-20T05:58:35;186.97;;;179.57;;
2724;SDS011;1370;52.596;13.112;2023-07-20T06:01:00;172.83;;;165.50;;
2724;SDS011;1370;52.596;13.112;2023-07-20T06:03:27;184.10;;;176.80;;
2724;SDS011;1370;52.596;13.112;2023-07-20T06:05:57;202.60;;;194.87;;
2724;SDS011;1370;52.596;13.112;2023-07-20T06:08:23;172.13;;;165.07;;
2724;SDS011;1370;52.596;13.112;2023-07-20T06:10:51;174.43;;;168.17;;
2724;SDS011;1370;52.596;13.112;2023-07-20T06:13:17;157.80;;;151.73;;
2724;SDS011;1370;52.596;13.112;2023-07-20T06:15:42;175.27;;;168.67;;
2724;SDS011;1370;52.596;13.112;2023-07-20T06:18:08;180.40;;;173.70;;
2724;SDS011;1370;52.596;13.112;2023-07-20T06:20:33;217.30;;;209.60;;
2724;SDS011;1370;52.596;13.112;2023-07-20T06:22:59;206.63;;;199.17;;
2724;SDS011;1370;52.596;13.112;2023-07-20T06:25:24;206.07;;;198.57;;
2724;SDS011;1370;52.596;13.112;2023-07-20T06:27:49;204.23;;;196.97;;
2724;SDS011;1370;52.596;13.112;2023-07-20T06:30:18;199.50;;;192.40;;
2724;SDS011;1370;52.596;13.112;2023-07-20T06:32:44;208.50;;;201.10;;
2724;SDS011;1370;52.596;13.112;2023-07-20T06:35:09;198.00;;;190.33;;
2724;SDS011;1370;52.596;13.112;2023-07-20T06:37:35;201.87;;;194.77;;
2724;SDS011;1370;52.596;13.112;2023-07-20T06:40:00;204.10;;;196.60;;
2724;SDS011;1370;52.596;13.112;2023-07-20T06:42:26;197.47;;;190.07;;
2724;SDS011;1370;52.596;13.112;2023-07-20T06:44:51;140.07;;;133.57;;
2724;SDS011;1370;52.596;13.112;2023-07-20T06:47:17;155.27;;;148.67;;
2724;SDS011;1370;52.596;13.112;2023-07-20T06:49:42;148.60;;;142.40;;
2724;SDS011;1370;52.596;13.112;2023-07-20T06:52:07;153.33;;;147.03;;
2724;SDS011;1370;52.596;13.112;2023-07-20T06:54:33;105.83;;;100.70;;
2724;SDS011;1370;52.596;13.112;2023-07-20T06:56:58;97.87;;;92.97;;
2724;SDS011;1370;52.596;13.112;2023-07-20T06:59:23;102.03;;;97.03;;
2724;SDS011;1370;52.596;13.112;2023-07-20T07:01:49;73.93;;;69.23;;
2724;SDS011;1370;52.596;13.112;2023-07-20T07:04:14;63.40;;;59.30;;
2724;SDS011;1370;52.596;13.112;2023-07-20T07:06:39;51.23;;;47.43;;
2724;SDS011;1370;52.596;13.112;2023-07-20T07:09:05;67.43;;;63.00;;
2724;SDS011;1370;52.596;13.112;2023-07-20T07:11:30;48.20;;;44.00;;
2724;SDS011;1370;52.596;13.112;2023-07-20T07:13:55;39.13;;;35.07;;
2724;SDS011;1370;52.596;13.112;2023-07-20T07:16:21;38.83;;;34.83;;
2724;SDS011;1370;52.596;13.112;2023-07-20T07:18:46;31.40;;;24.00;;
2724;SDS011;1370;52.596;13.112;2023-07-20T07:21:11;35.47;;;29.23;;
2724;SDS011;1370;52.596;13.112;2023-07-20T07:23:40;30.93;;;26.63;;
2724;SDS011;1370;52.596;13.112;2023-07-20T07:26:05;29.63;;;26.20;;
2724;SDS011;1370;52.596;13.112;2023-07-20T07:28:30;32.00;;;26.33;;
2724;SDS011;1370;52.596;13.112;2023-07-20T07:30:56;49.73;;;45.70;;
2724;SDS011;1370;52.596;13.112;2023-07-20T07:33:22;43.37;;;39.03;;
2724;SDS011;1370;52.596;13.112;2023-07-20T07:35:47;46.60;;;41.93;;
2724;SDS011;1370;52.596;13.112;2023-07-20T07:38:12;72.00;;;66.90;;
2724;SDS011;1370;52.596;13.112;2023-07-20T07:40:38;83.20;;;77.60;;
2724;SDS011;1370;52.596;13.112;2023-07-20T07:43:03;95.70;;;89.90;;
2724;SDS011;1370;52.596;13.112;2023-07-20T07:45:28;94.03;;;88.23;;
2724;SDS011;1370;52.596;13.112;2023-07-20T07:47:54;85.70;;;80.30;;
2724;SDS011;1370;52.596;13.112;2023-07-20T07:50:19;106.60;;;100.23;;
2724;SDS011;1370;52.596;13.112;2023-07-20T07:52:44;95.90;;;89.57;;
2724;SDS011;1370;52.596;13.112;2023-07-20T07:55:10;104.67;;;98.40;;
2724;SDS011;1370;52.596;13.112;2023-07-20T07:57:35;70.60;;;64.77;;
2724;SDS011;1370;52.596;13.112;2023-07-20T08:00:00;59.17;;;53.27;;
2724;SDS011;1370;52.596;13.112;2023-07-20T08:02:25;48.23;;;40.40;;
2724;SDS011;1370;52.596;13.112;2023-07-20T08:04:51;80.27;;;74.47;;
2724;SDS011;1370;52.596;13.112;2023-07-20T08:07:17;90.50;;;84.33;;
2724;SDS011;1370;52.596;13.112;2023-07-20T08:09:42;45.00;;;33.07;;
2724;SDS011;1370;52.596;13.112;2023-07-20T08:12:08;48.47;;;43.57;;
2724;SDS011;1370;52.596;13.112;2023-07-20T08:14:33;42.63;;;32.03;;
2724;SDS011;1370;52.596;13.112;2023-07-20T08:16:58;44.57;;;32.53;;
2724;SDS011;1370;52.596;13.112;2023-07-20T08:19:24;47.60;;;34.80;;
2724;SDS011;1370;52.596;13.112;2023-07-20T08:21:49;40.50;;;16.47;;
2724;SDS011;1370;52.596;13.112;2023-07-20T08:24:14;40.70;;;17.73;;
2724;SDS011;1370;52.596;13.112;2023-07-20T08:26:40;39.47;;;14.63;;
2724;SDS011;1370;52.596;13.112;2023-07-20T08:29:05;43.27;;;14.23;;
2724;SDS011;1370;52.596;13.112;2023-07-20T08:31:30;39.10;;;9.50;;
2724;SDS011;1370;52.596;13.112;2023-07-20T08:33:55;39.87;;;15.63;;
2724;SDS011;1370;52.596;13.112;2023-07-20T08:36:21;40.00;;;19.80;;
2724;SDS011;1370;52.596;13.112;2023-07-20T08:38:47;40.67;;;16.33;;
2724;SDS011;1370;52.596;13.112;2023-07-20T08:41:13;42.20;;;18.00;;
2724;SDS011;1370;52.596;13.112;2023-07-20T08:43:39;50.77;;;39.17;;
2724;SDS011;1370;52.596;13.112;2023-07-20T08:46:07;40.00;;;18.07;;
2724;SDS011;1370;52.596;13.112;2023-07-20T08:48:32;120.57;;;112.20;;
2724;SDS011;1370;52.596;13.112;2023-07-20T08:50:58;155.00;;;145.53;;
2724;SDS011;1370;52.596;13.112;2023-07-20T08:53:25;134.53;;;125.63;;
2724;SDS011;1370;52.596;13.112;2023-07-20T08:55:50;244.10;;;231.70;;
2724;SDS011;1370;52.596;13.112;2023-07-20T08:58:17;270.67;;;257.40;;
2724;SDS011;1370;52.596;13.112;2023-07-20T09:00:43;225.73;;;214.17;;
2724;SDS011;1370;52.596;13.112;2023-07-20T09:03:08;229.37;;;217.63;;
2724;SDS011;1370;52.596;13.112;2023-07-20T09:05:34;360.50;;;344.30;;
2724;SDS011;1370;52.596;13.112;2023-07-20T09:08:00;441.87;;;421.63;;
2724;SDS011;1370;52.596;13.112;2023-07-20T09:10:26;438.93;;;418.77;;
2724;SDS011;1370;52.596;13.112;2023-07-20T09:12:51;396.60;;;378.23;;
2724;SDS011;1370;52.596;13.112;2023-07-20T09:15:16;385.20;;;367.37;;
2724;SDS011;1370;52.596;13.112;2023-07-20T09:17:49;372.43;;;355.03;;
2724;SDS011;1370;52.596;13.112;2023-07-20T09:20:16;419.73;;;400.07;;
2724;SDS011;1370;52.596;13.112;2023-07-20T09:22:43;368.43;;;350.97;;
2724;SDS011;1370;52.596;13.112;2023-07-20T09:25:15;439.20;;;418.93;;
2724;SDS011;1370;52.596;13.112;2023-07-20T09:27:42;379.47;;;361.30;;
2724;SDS011;1370;52.596;13.112;2023-07-20T09:30:12;338.40;;;321.93;;
2724;SDS011;1370;52.596;13.112;2023-07-20T09:32:48;347.03;;;330.70;;
2724;SDS011;1370;52.596;13.112;2023-07-20T09:35:21;471.37;;;449.93;;
2724;SDS011;1370;52.596;13.112;2023-07-20T09:37:49;416.93;;;397.30;;
2724;SDS011;1370;52.596;13.112;2023-07-20T09:40:18;392.43;;;374.23;;
2724;SDS011;1370;52.596;13.112;2023-07-20T09:42:44;373.53;;;356.20;;
2724;SDS011;1370;52.596;13.112;2023-07-20T09:45:10;420.93;;;401.20;;
2724;SDS011;1370;52.596;13.112;2023-07-20T09:47:36;435.67;;;415.67;;
2724;SDS011;1370;52.596;13.112;2023-07-20T09:50:03;398.47;;;380.27;;
2724;SDS011;1370;52.596;13.112;2023-07-20T09:52:29;431.03;;;411.13;;
2724;SDS011;1370;52.596;13.112;2023-07-20T09:54:54;436.93;;;416.77;;
2724;SDS011;1370;52.596;13.112;2023-07-20T09:57:20;397.93;;;379.20;;
2724;SDS011;1370;52.596;13.112;2023-07-20T09:59:46;363.50;;;346.80;;
2724;SDS011;1370;52.596;13.112;2023-07-20T10:02:15;339.17;;;323.70;;
2724;SDS011;1370;52.596;13.112;2023-07-20T10:04:55;344.53;;;328.53;;
2724;SDS011;1370;52.596;13.112;2023-07-20T10:07:21;293.00;;;278.93;;
2724;SDS011;1370;52.596;13.112;2023-07-20T10:09:48;305.70;;;291.50;;
2724;SDS011;1370;52.596;13.112;2023-07-20T10:12:15;400.20;;;381.97;;
2724;SDS011;1370;52.596;13.112;2023-07-20T10:14:42;317.17;;;301.97;;
2724;SDS011;1370;52.596;13.112;2023-07-20T10:17:13;343.67;;;327.77;;
2724;SDS011;1370;52.596;13.112;2023-07-20T10:19:42;376.63;;;359.10;;
2724;SDS011;1370;52.596;13.112;2023-07-20T10:22:12;354.03;;;337.57;;
2724;SDS011;1370;52.596;13.112;2023-07-20T10:24:39;359.43;;;343.13;;
2724;SDS011;1370;52.596;13.112;2023-07-20T10:27:04;366.23;;;349.37;;
2724;SDS011;1370;52.596;13.112;2023-07-20T10:29:30;370.27;;;353.13;;
2724;SDS011;1370;52.596;13.112;2023-07-20T10:31:56;350.83;;;334.40;;
2724;SDS011;1370;52.596;13.112;2023-07-20T10:34:21;384.53;;;367.10;;
2724;SDS011;1370;52.596;13.112;2023-07-20T10:36:47;410.70;;;392.13;;
2724;SDS011;1370;52.596;13.112;2023-07-20T10:39:23;369.10;;;352.07;;
2724;SDS011;1370;52.596;13.112;2023-07-20T10:42:02;358.70;;;342.10;;
2724;SDS011;1370;52.596;13.112;2023-07-20T10:44:38;389.60;;;371.73;;
2724;SDS011;1370;52.596;13.112;2023-07-20T10:47:11;326.93;;;311.70;;
2724;SDS011;1370;52.596;13.112;2023-07-20T10:49:57;346.50;;;329.87;;
2724;SDS011;1370;52.596;13.112;2023-07-20T10:52:23;419.17;;;399.30;;
2724;SDS011;1370;52.596;13.112;2023-07-20T10:54:48;479.93;;;457.00;;
2724;SDS011;1370;52.596;13.112;2023-07-20T10:57:24;457.13;;;435.90;;
2724;SDS011;1370;52.596;13.112;2023-07-20T11:00:09;475.47;;;452.67;;
2724;SDS011;1370;52.596;13.112;2023-07-20T11:02:46;446.07;;;425.03;;
2724;SDS011;1370;52.596;13.112;2023-07-20T11:07:56;540.93;;;514.57;;
2724;SDS011;1370;52.596;13.112;2023-07-20T11:10:22;582.63;;;553.57;;
2724;SDS011;1370;52.596;13.112;2023-07-20T11:15:45;835.47;;;789.27;;
2724;SDS011;1370;52.596;13.112;2023-07-20T11:18:32;853.73;;;805.47;;
2724;SDS011;1370;52.596;13.112;2023-07-20T11:20:58;863.47;;;813.73;;
2724;SDS011;1370;52.596;13.112;2023-07-20T11:23:24;911.30;;;858.07;;
2724;SDS011;1370;52.596;13.112;2023-07-20T11:25:49;902.67;;;851.53;;
2724;SDS011;1370;52.596;13.112;2023-07-20T11:28:15;822.87;;;776.70;;
2724;SDS011;1370;52.596;13.112;2023-07-20T11:30:40;718.10;;;678.40;;
2724;SDS011;1370;52.596;13.112;2023-07-20T11:33:08;547.37;;;520.10;;
2724;SDS011;1370;52.596;13.112;2023-07-20T11:35:41;625.50;;;593.63;;
2724;SDS011;1370;52.596;13.112;2023-07-20T11:38:08;594.00;;;563.87;;
2724;SDS011;1370;52.596;13.112;2023-07-20T11:40:33;503.90;;;480.13;;
2724;SDS011;1370;52.596;13.112;2023-07-20T11:42:59;486.30;;;463.20;;
2724;SDS011;1370;52.596;13.112;2023-07-20T11:45:24;522.13;;;497.23;;
2724;SDS011;1370;52.596;13.112;2023-07-20T11:47:50;484.00;;;461.40;;
2724;SDS011;1370;52.596;13.112;2023-07-20T11:50:15;518.80;;;493.57;;
2724;SDS011;1370;52.596;13.112;2023-07-20T11:52:41;438.80;;;418.23;;
2724;SDS011;1370;52.596;13.112;2023-07-20T11:55:07;480.70;;;457.63;;
2724;SDS011;1370;52.596;13.112;2023-07-20T11:57:32;661.37;;;625.70;;
2724;SDS011;1370;52.596;13.112;2023-07-20T12:00:02;652.93;;;618.37;;
2724;SDS011;1370;52.596;13.112;2023-07-20T12:02:33;704.80;;;666.73;;
2724;SDS011;1370;52.596;13.112;2023-07-20T12:04:59;697.70;;;660.07;;
2724;SDS011;1370;52.596;13.112;2023-07-20T12:07:25;702.07;;;664.67;;
2724;SDS011;1370;52.596;13.112;2023-07-20T12:12:31;677.20;;;640.37;;
2724;SDS011;1370;52.596;13.112;2023-07-20T12:15:11;827.57;;;779.90;;
2724;SDS011;1370;52.596;13.112;2023-07-20T12:17:45;939.90;;;884.50;;
2724;SDS011;1370;52.596;13.112;2023-07-20T12:20:11;1010.90;;;949.50;;
2724;SDS011;1370;52.596;13.112;2023-07-20T12:22:40;1002.07;;;942.20;;
2724;SDS011;1370;52.596;13.112;2023-07-20T12:25:08;822.33;;;775.87;;
2724;SDS011;1370;52.596;13.112;2023-07-20T12:27:36;589.57;;;558.30;;
2724;SDS011;1370;52.596;13.112;2023-07-20T12:30:02;597.73;;;566.73;;
2724;SDS011;1370;52.596;13.112;2023-07-20T12:32:29;551.60;;;525.17;;
2724;SDS011;1370;52.596;13.112;2023-07-20T12:34:54;594.60;;;563.93;;
2724;SDS011;1370;52.596;13.112;2023-07-20T12:37:19;611.97;;;580.13;;
2724;SDS011;1370;52.596;13.112;2023-07-20T12:39:45;606.00;;;575.37;;
2724;SDS011;1370;52.596;13.112;2023-07-20T12:42:12;654.67;;;620.83;;
2724;SDS011;1370;52.596;13.112;2023-07-20T12:44:37;492.63;;;467.87;;
2724;SDS011;1370;52.596;13.112;2023-07-20T12:47:02;535.67;;;508.23;;
2724;SDS011;1370;52.596;13.112;2023-07-20T12:49:28;806.37;;;762.10;;
2724;SDS011;1370;52.596;13.112;2023-07-20T12:51:53;460.10;;;438.03;;
2724;SDS011;1370;52.596;13.112;2023-07-20T12:54:18;584.53;;;554.67;;
2724;SDS011;1370;52.596;13.112;2023-07-20T12:56:44;889.00;;;838.77;;
2724;SDS011;1370;52.596;13.112;2023-07-20T12:59:09;833.73;;;787.40;;
2724;SDS011;1370;52.596;13.112;2023-07-20T13:01:34;904.37;;;852.83;;
2724;SDS011;1370;52.596;13.112;2023-07-20T13:03:59;887.30;;;837.50;;
2724;SDS011;1370;52.596;13.112;2023-07-20T13:06:25;558.57;;;531.40;;
2724;SDS011;1370;52.596;13.112;2023-07-20T13:08:50;633.57;;;601.73;;
2724;SDS011;1370;52.596;13.112;2023-07-20T13:11:21;528.47;;;502.73;;
2724;SDS011;1370;52.596;13.112;2023-07-20T13:13:47;523.77;;;498.23;;
2724;SDS011;1370;52.596;13.112;2023-07-20T13:16:12;567.63;;;539.50;;
2724;SDS011;1370;52.596;13.112;2023-07-20T13:18:37;693.73;;;657.23;;
2724;SDS011;1370;52.596;13.112;2023-07-20T13:21:03;584.70;;;554.93;;
2724;SDS011;1370;52.596;13.112;2023-07-20T13:23:28;554.13;;;526.87;;
2724;SDS011;1370;52.596;13.112;2023-07-20T13:25:53;524.33;;;499.10;;
2724;SDS011;1370;52.596;13.112;2023-07-20T13:28:19;494.20;;;470.53;;
2724;SDS011;1370;52.596;13.112;2023-07-20T13:30:44;389.80;;;371.10;;
2724;SDS011;1370;52.596;13.112;2023-07-20T13:33:11;384.77;;;366.13;;
2724;SDS011;1370;52.596;13.112;2023-07-20T13:35:36;455.67;;;433.03;;
2724;SDS011;1370;52.596;13.112;2023-07-20T13:38:01;299.83;;;284.93;;
2724;SDS011;1370;52.596;13.112;2023-07-20T13:40:26;304.00;;;289.17;;
2724;SDS011;1370;52.596;13.112;2023-07-20T13:42:52;264.80;;;251.60;;
2724;SDS011;1370;52.596;13.112;2023-07-20T13:45:17;444.00;;;422.63;;
2724;SDS011;1370;52.596;13.112;2023-07-20T13:47:43;302.33;;;287.37;;
2724;SDS011;1370;52.596;13.112;2023-07-20T13:50:08;313.17;;;298.03;;
2724;SDS011;1370;52.596;13.112;2023-07-20T13:52:33;379.37;;;361.17;;
2724;SDS011;1370;52.596;13.112;2023-07-20T13:55:00;303.80;;;288.87;;
2724;SDS011;1370;52.596;13.112;2023-07-20T13:57:25;360.17;;;342.83;;
2724;SDS011;1370;52.596;13.112;2023-07-20T13:59:50;287.07;;;272.53;;
2724;SDS011;1370;52.596;13.112;2023-07-20T14:02:16;283.07;;;268.60;;
2724;SDS011;1370;52.596;13.112;2023-07-20T14:04:41;336.17;;;319.50;;
2724;SDS011;1370;52.596;13.112;2023-07-20T14:07:06;255.03;;;241.77;;
2724;SDS011;1370;52.596;13.112;2023-07-20T14:09:31;284.40;;;270.10;;
2724;SDS011;1370;52.596;13.112;2023-07-20T14:11:57;287.13;;;273.10;;
2724;SDS011;1370;52.596;13.112;2023-07-20T14:14:22;277.23;;;263.40;;
2724;SDS011;1370;52.596;13.112;2023-07-20T14:16:48;272.13;;;258.33;;
2724;SDS011;1370;52.596;13.112;2023-07-20T14:19:13;275.00;;;261.27;;
2724;SDS011;1370;52.596;13.112;2023-07-20T14:21:38;290.00;;;275.67;;
2724;SDS011;1370;52.596;13.112;2023-07-20T14:24:04;262.00;;;248.53;;
2724;SDS011;1370;52.596;13.112;2023-07-20T14:26:29;293.63;;;279.37;;
2724;SDS011;1370;52.596;13.112;2023-07-20T14:28:54;254.87;;;241.67;;
2724;SDS011;1370;52.596;13.112;2023-07-20T14:31:20;338.17;;;321.73;;